4XAIA LLHZ-LLHZ

Flight info

Callsign 4XAIA
Flight time 0h 7m
Altitude 700
Route BUA
Aircraft H60/M-S/L

Departure

Time 2026-04-23 21:04
Airport Herzliya Airport (LLHZ)

Arrival

Time 2026-04-23 21:11
Airport Herzliya Airport (LLHZ)
Time Latitude Longitude Altitude Speed Heading
2026-04-23 20:55 32.18126 34.82899 95 ft 0 kts 20°
2026-04-23 21:01 32.18147 34.82903 112 ft 3 kts 122°
2026-04-23 21:01 32.18134 34.82942 109 ft 1 kts 54°
2026-04-23 21:01 32.18163 34.83007 156 ft 26 kts 90°
2026-04-23 21:02 32.18384 34.82766 229 ft 71 kts 350°
2026-04-23 21:02 32.18893 34.82919 225 ft 80 kts 14°
2026-04-23 21:02 32.19237 34.83329 198 ft 72 kts 85°
2026-04-23 21:02 32.19212 34.83669 256 ft 19 kts 92°
2026-04-23 21:03 32.19542 34.83917 407 ft 88 kts 39°
2026-04-23 21:03 32.20012 34.84517 529 ft 114 kts 50°
2026-04-23 21:03 32.20465 34.85316 494 ft 122 kts 60°
2026-04-23 21:03 32.20508 34.86369 628 ft 129 kts 93°
2026-04-23 21:04 32.20639 34.87391 745 ft 127 kts 46°
2026-04-23 21:04 32.21347 34.87977 376 ft 113 kts 27°
2026-04-23 21:04 32.22158 34.88203 460 ft 127 kts
2026-04-23 21:04 32.23047 34.88390 358 ft 129 kts 11°
2026-04-23 21:05 32.23911 34.88616 533 ft 131 kts 15°
2026-04-23 21:05 32.24774 34.88894 489 ft 126 kts 14°
2026-04-23 21:05 32.25591 34.89112 636 ft 120 kts 13°
2026-04-23 21:05 32.26420 34.89311 491 ft 121 kts
2026-04-23 21:06 32.27216 34.89450 530 ft 97 kts
2026-04-23 21:06 32.27788 34.89603 630 ft 76 kts 12°
2026-04-23 21:06 32.28278 34.89746 717 ft 73 kts 11°
2026-04-23 21:06 32.28883 34.89798 373 ft 94 kts
2026-04-23 21:07 32.29547 34.89890 410 ft 107 kts
2026-04-23 21:07 32.30423 34.90039 411 ft 138 kts
2026-04-23 21:07 32.31368 34.90248 462 ft 141 kts 10°
2026-04-23 21:07 32.32261 34.90640 392 ft 132 kts 45°
2026-04-23 21:08 32.32245 34.91591 865 ft 121 kts 105°
2026-04-23 21:08 32.32108 34.92539 750 ft 116 kts 94°
2026-04-23 21:08 32.31583 34.93080 619 ft 122 kts 192°
2026-04-23 21:08 32.30710 34.92806 704 ft 137 kts 195°
2026-04-23 21:09 32.29810 34.92558 693 ft 130 kts 190°
2026-04-23 21:09 32.28893 34.92371 1000 ft 138 kts 191°
2026-04-23 21:09 32.27877 34.92217 805 ft 158 kts 181°
2026-04-23 21:09 32.26753 34.91979 353 ft 170 kts 219°
2026-04-23 21:10 32.25648 34.91323 696 ft 193 kts 201°
2026-04-23 21:10 32.24429 34.90545 938 ft 200 kts 214°
2026-04-23 21:10 32.23205 34.89675 981 ft 210 kts 201°
2026-04-23 21:10 32.21858 34.89148 1327 ft 201 kts 198°
2026-04-23 21:11 32.20555 34.88623 1048 ft 181 kts 198°
2026-04-23 21:11 32.20163 34.88404 811 ft 48 kts 271°
2026-04-23 21:11 32.19937 34.88152 959 ft 122 kts 224°
2026-04-23 21:11 32.19099 34.87350 758 ft 182 kts 214°
2026-04-23 21:12 32.18042 34.86483 559 ft 165 kts 264°
2026-04-23 21:12 32.18135 34.85520 764 ft 84 kts 292°
2026-04-23 21:12 32.18347 34.85016 631 ft 62 kts 298°
2026-04-23 21:12 32.18552 34.84428 860 ft 73 kts 291°
2026-04-23 21:13 32.18660 34.83830 422 ft 66 kts 271°
2026-04-23 21:13 32.18581 34.83592 413 ft 43 kts 249°
2026-04-23 21:13 32.18471 34.83367 363 ft 37 kts 249°
2026-04-23 21:13 32.18318 34.83143 218 ft 23 kts 231°
2026-04-23 21:14 32.18236 34.83050 160 ft 13 kts 225°
2026-04-23 21:14 32.18190 34.82996 114 ft 9 kts 216°
2026-04-23 21:14 32.18154 34.82982 110 ft 3 kts 246°
2026-04-23 21:14 32.18138 34.82937 105 ft 6 kts 209°
2026-04-23 21:15 32.18121 34.82922 96 ft 2 kts
2026-04-23 21:15 32.18124 34.82922 94 ft 0 kts 15°